createdAt,value
2019-03-20T00:03:24.190Z,0.40
2019-03-20T00:08:30.805Z,0.30
2019-03-20T00:13:36.107Z,0.43
2019-03-20T00:18:41.345Z,0.10
2019-03-20T00:23:47.320Z,0.50
2019-03-20T00:28:52.505Z,0.40
2019-03-20T00:33:57.729Z,0.20
2019-03-20T00:39:02.907Z,0.30
2019-03-20T00:44:08.134Z,0.47
2019-03-20T00:49:13.523Z,0.30
2019-03-20T00:54:18.745Z,0.10
2019-03-20T00:59:23.969Z,0.00
2019-03-20T01:04:30.269Z,0.40
2019-03-20T01:09:35.595Z,0.20
2019-03-20T01:14:40.864Z,0.20
2019-03-20T01:19:46.145Z,0.10
2019-03-20T01:24:51.589Z,0.10
2019-03-20T01:29:57.010Z,0.00
2019-03-20T01:35:02.234Z,0.00
2019-03-20T01:40:07.470Z,0.00
2019-03-20T01:45:12.922Z,0.20
2019-03-20T01:50:18.217Z,1.47
2019-03-20T01:55:23.414Z,2.00
2019-03-20T02:00:28.645Z,1.30
2019-03-20T02:05:36.271Z,0.00
2019-03-20T02:10:40.798Z,0.10
2019-03-20T02:15:46.025Z,0.00
2019-03-20T02:20:51.244Z,0.00
2019-03-20T02:25:56.488Z,0.00
2019-03-20T02:31:01.710Z,0.00
2019-03-20T02:36:06.920Z,0.00
2019-03-20T02:41:12.205Z,0.00
2019-03-20T02:46:17.475Z,0.10
2019-03-20T02:51:22.733Z,0.07
2019-03-20T02:56:27.935Z,0.10
2019-03-20T03:01:33.221Z,0.63
2019-03-20T03:06:38.623Z,0.20
2019-03-20T03:11:43.832Z,0.10
2019-03-20T03:16:49.196Z,1.10
2019-03-20T03:21:54.403Z,1.80
2019-03-20T03:26:59.566Z,1.37
2019-03-20T03:32:04.899Z,0.10
2019-03-20T03:37:10.497Z,0.10
2019-03-20T03:42:15.698Z,0.10
2019-03-20T03:47:20.910Z,0.00
2019-03-20T03:52:26.236Z,0.00
2019-03-20T03:57:31.736Z,0.00
2019-03-20T04:02:36.927Z,0.20
2019-03-20T04:07:42.175Z,0.10
2019-03-20T04:12:47.365Z,0.20
2019-03-20T04:17:52.627Z,0.00
2019-03-20T04:22:57.855Z,0.00
2019-03-20T04:28:03.156Z,0.10
2019-03-20T04:33:08.387Z,0.00
2019-03-20T04:38:13.674Z,0.70
2019-03-20T04:43:18.910Z,2.10
2019-03-20T04:48:24.100Z,1.90
2019-03-20T04:53:29.480Z,0.80
2019-03-20T04:58:34.730Z,0.00
2019-03-20T05:03:39.982Z,0.05
2019-03-20T05:08:45.262Z,0.00
2019-03-20T05:13:50.551Z,0.00
2019-03-20T05:18:55.806Z,0.00
2019-03-20T05:24:01.202Z,0.20
2019-03-20T05:29:06.438Z,4.60
2019-03-20T05:34:11.676Z,6.73
2019-03-20T05:39:16.875Z,2.10
2019-03-20T05:44:22.106Z,0.60
2019-03-20T05:49:27.387Z,4.87
2019-03-20T05:54:32.650Z,6.17
2019-03-20T05:59:37.956Z,5.97
2019-03-20T06:04:43.150Z,6.00
2019-03-20T06:09:48.476Z,7.10
2019-03-20T06:14:53.730Z,5.50
2019-03-20T06:19:58.959Z,1.53
2019-03-20T06:25:04.547Z,1.00
2019-03-20T06:30:12.610Z,3.10
2019-03-20T06:35:17.810Z,1.93
2019-03-20T06:40:23.080Z,0.20
2019-03-20T06:45:28.368Z,0.30
2019-03-20T06:50:33.715Z,0.00
2019-03-20T06:55:38.895Z,0.10
2019-03-20T07:00:53.894Z,0.60
2019-03-20T07:06:08.310Z,0.40
2019-03-20T07:11:12.800Z,0.33
2019-03-20T07:16:18.185Z,0.33
2019-03-20T07:21:26.441Z,0.40
2019-03-20T07:26:33.396Z,0.20
2019-03-20T07:31:38.657Z,0.00
2019-03-20T07:36:44.218Z,0.05
2019-03-20T07:41:49.546Z,0.15
2019-03-20T07:46:54.710Z,0.60
2019-03-20T07:52:00.081Z,0.63
2019-03-20T07:57:05.313Z,0.30
2019-03-20T08:02:10.838Z,0.30
2019-03-20T08:07:16.142Z,0.97
2019-03-20T08:12:21.523Z,1.20
2019-03-20T08:17:26.734Z,3.80
2019-03-20T08:22:32.938Z,5.90
2019-03-20T08:27:38.272Z,1.10
2019-03-20T08:32:43.678Z,0.70
2019-03-20T08:37:48.994Z,1.73
2019-03-20T08:42:56.939Z,1.80
2019-03-20T08:48:05.365Z,0.80
2019-03-20T08:53:10.606Z,0.00
2019-03-20T08:58:16.180Z,0.03
2019-03-20T09:03:21.409Z,0.20
2019-03-20T09:08:29.743Z,0.80
2019-03-20T09:13:33.894Z,0.60
2019-03-20T09:18:42.325Z,1.05
2019-03-20T09:23:47.603Z,1.10
2019-03-20T09:28:52.870Z,2.90
2019-03-20T09:33:58.169Z,1.70
2019-03-20T09:39:05.982Z,2.03
2019-03-20T09:44:11.460Z,1.67
2019-03-20T09:49:16.691Z,0.73
2019-03-20T09:54:22.177Z,0.60
2019-03-20T09:59:27.501Z,1.20
2019-03-20T10:04:32.770Z,1.30
2019-03-20T10:09:38.010Z,0.37
2019-03-20T10:14:43.319Z,0.47
2019-03-20T10:19:48.570Z,0.33
2019-03-20T10:24:53.995Z,0.70
2019-03-20T10:29:59.399Z,0.37
2019-03-20T10:35:05.229Z,0.40
2019-03-20T10:40:12.755Z,0.90
2019-03-20T10:45:18.148Z,1.50
2019-03-20T10:50:23.716Z,4.10
2019-03-20T10:55:29.010Z,6.23
2019-03-20T11:00:34.415Z,5.30
2019-03-20T11:05:39.642Z,2.40
2019-03-20T11:10:45.068Z,2.20
2019-03-20T11:15:50.395Z,2.42
2019-03-20T11:20:55.670Z,2.77
2019-03-20T11:26:01.004Z,0.50
2019-03-20T11:31:06.439Z,0.17
2019-03-20T11:36:11.675Z,0.20
2019-03-20T11:41:17.341Z,0.30
2019-03-20T11:46:22.680Z,0.20
2019-03-20T11:51:28.261Z,0.50
2019-03-20T11:56:35.039Z,0.40
2019-03-20T12:01:41.916Z,0.00
2019-03-20T12:06:47.215Z,0.10
2019-03-20T12:11:52.555Z,0.20
2019-03-20T12:16:57.915Z,0.00
2019-03-20T12:22:03.238Z,0.00
2019-03-20T12:27:15.016Z,0.00
2019-03-20T12:32:15.695Z,0.00
2019-03-20T12:37:21.034Z,0.00
2019-03-20T12:42:26.655Z,0.00
2019-03-20T12:47:32.590Z,0.00
2019-03-20T12:52:38.042Z,0.00
2019-03-20T12:57:43.595Z,0.00
2019-03-20T13:02:49.159Z,0.00
2019-03-20T13:08:01.901Z,0.00
2019-03-20T13:13:02.497Z,0.30
2019-03-20T13:18:09.092Z,0.00
2019-03-20T13:23:16.255Z,0.13
2019-03-20T13:28:21.594Z,0.00
2019-03-20T13:33:26.994Z,0.20
2019-03-20T13:38:34.215Z,0.10
2019-03-20T13:43:39.712Z,0.40
2019-03-20T13:48:45.175Z,0.20
2019-03-20T13:53:50.697Z,0.00
2019-03-20T13:58:55.995Z,0.80
2019-03-20T14:04:01.327Z,1.10
2019-03-20T14:09:08.650Z,1.10
2019-03-20T14:14:13.883Z,0.27
2019-03-20T14:19:19.294Z,0.00
2019-03-20T14:24:24.593Z,0.17
2019-03-20T14:29:29.928Z,0.60
2019-03-20T14:34:35.228Z,1.67
2019-03-20T14:39:40.494Z,2.35
2019-03-20T14:44:45.894Z,2.20
2019-03-20T14:49:52.557Z,2.60
2019-03-20T14:54:57.883Z,2.33
2019-03-20T15:00:03.497Z,3.13
2019-03-20T15:05:09.518Z,2.93
2019-03-20T15:10:16.795Z,2.07
2019-03-20T15:15:26.548Z,3.20
2019-03-20T15:20:32.232Z,2.30
2019-03-20T15:25:37.502Z,1.20
2019-03-20T15:30:42.818Z,0.73
2019-03-20T15:35:48.342Z,0.78
2019-03-20T15:40:56.442Z,0.70
2019-03-20T15:46:00.734Z,0.90
2019-03-20T15:51:06.177Z,1.07
2019-03-20T15:56:11.489Z,0.90
2019-03-20T16:01:16.924Z,0.90
2019-03-20T16:06:22.178Z,1.17
2019-03-20T16:11:27.502Z,1.23
2019-03-20T16:16:32.737Z,1.00
2019-03-20T16:21:38.272Z,1.10
2019-03-20T16:26:43.584Z,0.72
2019-03-20T16:31:48.989Z,1.42
2019-03-20T16:36:57.949Z,1.10
2019-03-20T16:42:04.958Z,0.57
2019-03-20T16:47:10.327Z,0.20
2019-03-20T16:52:15.802Z,0.10
2019-03-20T16:57:21.935Z,0.40
2019-03-20T17:02:27.242Z,0.07
2019-03-20T17:07:32.517Z,0.00
2019-03-20T17:12:37.933Z,0.10
2019-03-20T17:17:43.453Z,0.30
2019-03-20T17:22:48.652Z,0.30
2019-03-20T17:27:53.983Z,0.73
2019-03-20T17:32:59.443Z,1.10
2019-03-20T17:38:04.887Z,1.20
2019-03-20T17:43:12.484Z,1.32
2019-03-20T17:48:17.893Z,1.17
2019-03-20T17:53:23.269Z,1.50
2019-03-20T17:58:28.594Z,1.30
2019-03-20T18:03:36.598Z,1.57
2019-03-20T18:08:41.902Z,1.40
2019-03-20T18:13:47.398Z,1.37
2019-03-20T18:18:52.952Z,1.30
2019-03-20T18:23:58.396Z,1.40
2019-03-20T18:29:03.821Z,1.80
2019-03-20T18:34:09.172Z,1.87
2019-03-20T18:39:14.619Z,1.27
2019-03-20T18:44:21.019Z,2.90
2019-03-20T18:49:26.221Z,2.80
2019-03-20T18:54:32.600Z,1.80
2019-03-20T18:59:38.100Z,2.10
2019-03-20T19:04:43.574Z,0.80
2019-03-20T19:09:48.890Z,0.90
2019-03-20T19:14:54.385Z,1.10
2019-03-20T19:19:59.817Z,1.20
2019-03-20T19:25:05.871Z,1.40
2019-03-20T19:30:14.841Z,1.37
2019-03-20T19:35:20.244Z,1.00
2019-03-20T19:40:25.660Z,1.55
2019-03-20T19:45:31.020Z,1.67
2019-03-20T19:50:37.279Z,1.57
2019-03-20T19:55:42.659Z,1.35
2019-03-20T20:00:48.111Z,1.80
2019-03-20T20:05:53.581Z,2.30
2019-03-20T20:10:58.880Z,2.00
2019-03-20T20:16:04.420Z,2.00
2019-03-20T20:21:11.819Z,13.30
2019-03-20T20:26:18.398Z,6.87
2019-03-20T20:31:24.034Z,18.93
2019-03-20T20:36:29.380Z,2.57
2019-03-20T20:41:34.981Z,3.10
2019-03-20T20:46:40.420Z,3.63
2019-03-20T20:51:45.819Z,2.75
2019-03-20T20:56:51.421Z,2.70
2019-03-20T21:01:56.940Z,2.83
2019-03-20T21:07:02.354Z,3.03
2019-03-20T21:12:07.921Z,3.70
2019-03-20T21:17:18.240Z,2.93
2019-03-20T21:22:45.214Z,3.10
2019-03-20T21:28:08.139Z,3.55
2019-03-20T21:33:25.260Z,3.70
2019-03-20T21:38:31.180Z,3.63
2019-03-20T21:43:52.610Z,3.63
2019-03-20T21:48:58.580Z,3.00
2019-03-20T21:54:42.176Z,3.43
2019-03-20T22:00:02.675Z,3.80
2019-03-20T22:05:09.594Z,3.47
2019-03-20T22:10:32.168Z,3.93
2019-03-20T22:15:50.027Z,4.90
2019-03-20T22:21:05.134Z,7.77
2019-03-20T22:26:43.031Z,7.23
2019-03-20T22:32:01.372Z,6.00
2019-03-20T22:37:07.148Z,4.87
2019-03-20T22:42:21.382Z,6.13
2019-03-20T22:47:44.147Z,7.83
2019-03-20T22:53:16.033Z,11.03
2019-03-20T22:58:34.313Z,12.20
2019-03-20T23:03:43.817Z,7.55
2019-03-20T23:08:49.884Z,8.55
2019-03-20T23:13:55.927Z,7.50
2019-03-20T23:19:01.799Z,9.00
2019-03-20T23:24:07.869Z,7.03
2019-03-20T23:29:13.642Z,8.10
2019-03-20T23:34:19.446Z,12.40
2019-03-20T23:39:25.273Z,10.60
2019-03-20T23:44:32.862Z,10.47
2019-03-20T23:49:38.631Z,8.10
2019-03-20T23:54:47.911Z,10.10
2019-03-20T23:59:54.572Z,8.60
